Jane Ann Blessey — WDA4762 — position and weather

sailwx.info

Track history (hours):
 
Tides and Currents Weather Stations Pressure Air Temp Water Temp Dewpoint Dewpoint Depression Visibility Wind Speed Wind Dir Waves Ship Positions

Jane Ann Blessey

Owner: BLESSY ENTERPRISES INC, HARAHAN, LA. More information available from US FCC via Universal Licensing System.

Last reported at 2018-Feb-19 08:02 UTC. Time now 2018-Feb-24 09:57 UTC.
Position N 29°34' W 090°33'.

Length 25 m; draft 2.7 m.

MMSI: 366812830.

Date/timePositionNaut miles runAvg speedWind from/ knotsBaromVisibWave heightAir tempDewpointWater temp
2018-Feb-19 08:02N 29°34' W 090°33'0 5.2
2018-Feb-19 08:00N 29°34' W 090°33'3 4.9
2018-Feb-19 07:27N 29°35' W 090°36'2 5.0
2018-Feb-19 07:00N 29°36' W 090°39'2 4.4
2018-Feb-19 06:30N 29°36' W 090°41'1 2.8
2018-Feb-19 06:00N 29°36' W 090°43'2 3.8
2018-Feb-19 05:30N 29°34' W 090°43'2 3.6
2018-Feb-19 05:01N 29°33' W 090°45'1 1.6
2018-Feb-19 04:30N 29°32' W 090°46'0 0.0
2018-Feb-19 04:00N 29°32' W 090°46'0 0.0
2018-Feb-19 03:30N 29°32' W 090°46'0 0.0
2018-Feb-19 03:00N 29°32' W 090°46'0 0.4
2018-Feb-19 02:30N 29°32' W 090°46'2 3.5
2018-Feb-19 01:59N 29°32' W 090°48'70 2.7
2018-Feb-18 00:24N 29°48' W 092°06'2 5.5
2018-Feb-18 00:00N 29°47' W 092°09'2 4.9
2018-Feb-17 23:30N 29°47' W 092°11'3 5.8
2018-Feb-17 23:00N 29°48' W 092°15'3 5.8
2018-Feb-17 22:28N 29°50' W 092°18'41 2.0
2018-Feb-17 01:27N 29°56' W 093°05'3 4.2
2018-Feb-17 00:45N 29°56' W 093°08'2 4.1
2018-Feb-17 00:16N 29°57' W 093°10'1 4.5
2018-Feb-17 00:00N 29°58' W 093°11'3 4.5
2018-Feb-16 23:22N 29°60' W 093°13'1 4.0
2018-Feb-16 23:00N 30°01' W 093°14'2 4.0
2018-Feb-16 22:30N 30°03' W 093°16'2 4.4
2018-Feb-16 22:00N 30°05' W 093°17'2 3.5
2018-Feb-16 21:31N 30°06' W 093°18'1 1.5
2018-Feb-16 21:00N 30°06' W 093°19'0 0.0
2018-Feb-16 20:31N 30°06' W 093°19'0 0.0
2018-Feb-16 20:00N 30°06' W 093°19'0 0.0
2018-Feb-16 19:30N 30°06' W 093°19'0 0.5
2018-Feb-16 19:00N 30°06' W 093°19'0 0.0
2018-Feb-16 18:31N 30°06' W 093°19'2 3.0
2018-Feb-16 18:00N 30°05' W 093°20'0 0.5
2018-Feb-16 17:30N 30°05' W 093°20'0 0.6
2018-Feb-16 17:00N 30°05' W 093°20'0 0.0
2018-Feb-16 16:30N 30°05' W 093°20'0 0.0
2018-Feb-16 16:00N 30°05' W 093°20'0 0.0
2018-Feb-16 15:30N 30°05' W 093°20'0 0.0
2018-Feb-16 15:01N 30°05' W 093°20'0 0.9
2018-Feb-16 14:30N 30°05' W 093°20'0 0.0
2018-Feb-16 13:59N 30°05' W 093°20'0 0.0
2018-Feb-16 13:30N 30°05' W 093°20'0 0.0
2018-Feb-16 12:58N 30°05' W 093°20'0 0.0
2018-Feb-16 12:29N 30°05' W 093°20'0 0.0
2018-Feb-16 12:00N 30°05' W 093°20'0 0.0
2018-Feb-16 11:30N 30°05' W 093°20'0 0.0
2018-Feb-16 10:59N 30°05' W 093°20'0 0.0
2018-Feb-16 10:30N 30°05' W 093°20'0 0.0
2018-Feb-16 10:00N 30°05' W 093°20'0 0.0
2018-Feb-16 09:30N 30°05' W 093°20'0 0.0
2018-Feb-16 08:58N 30°05' W 093°20'0 0.0
2018-Feb-16 08:29N 30°05' W 093°20'0 0.0
2018-Feb-16 08:00N 30°05' W 093°20'0 0.0
2018-Feb-16 07:30N 30°05' W 093°20'0 0.0
2018-Feb-16 07:00N 30°05' W 093°20'0 0.0
2018-Feb-16 06:30N 30°05' W 093°20'0 0.3
2018-Feb-16 06:00N 30°05' W 093°20'2 3.4
2018-Feb-16 05:30N 30°07' W 093°20'1 2.9
2018-Feb-16 05:00N 30°08' W 093°20'0 0.0
2018-Feb-16 04:30N 30°08' W 093°20'0 0.1
2018-Feb-16 04:00N 30°08' W 093°20'0 0.9
2018-Feb-16 03:30N 30°08' W 093°19'0 0.0
2018-Feb-16 03:01N 30°08' W 093°19'0 0.0
2018-Feb-16 02:31N 30°08' W 093°19'0 0.0
2018-Feb-16 02:00N 30°08' W 093°19'0 0.0
2018-Feb-16 01:31N 30°08' W 093°19'0 0.0
2018-Feb-16 01:00N 30°08' W 093°19'0 0.0
2018-Feb-16 00:29N 30°08' W 093°19'0 0.0
2018-Feb-16 00:00N 30°08' W 093°19'0 0.0
2018-Feb-15 23:31N 30°08' W 093°19'0 0.0
2018-Feb-15 22:57N 30°08' W 093°19'0 0.0
2018-Feb-15 22:30N 30°08' W 093°19'0 0.0
2018-Feb-15 22:00N 30°08' W 093°19'0 0.0
2018-Feb-15 21:30N 30°08' W 093°19'0 0.0
2018-Feb-15 21:00N 30°08' W 093°19'0 0.0
2018-Feb-15 20:30N 30°08' W 093°19'0 0.0
2018-Feb-15 20:00N 30°08' W 093°19'0 0.0
2018-Feb-15 19:29N 30°08' W 093°19'0 0.0
2018-Feb-15 19:00N 30°08' W 093°19'0 0.0
2018-Feb-15 18:30N 30°08' W 093°19'0 0.0
2018-Feb-15 18:00N 30°08' W 093°19'0 0.0
2018-Feb-15 17:30N 30°08' W 093°19'0 0.0
2018-Feb-15 17:00N 30°08' W 093°19'0 0.0
2018-Feb-15 16:28N 30°08' W 093°19'0 0.0
2018-Feb-15 15:57N 30°08' W 093°19'0 0.0
2018-Feb-15 15:29N 30°08' W 093°19'0 0.0
2018-Feb-15 15:01N 30°08' W 093°19'0 0.0
2018-Feb-15 14:30N 30°08' W 093°19'0 0.1
2018-Feb-15 13:59N 30°08' W 093°19'0 0.9
2018-Feb-15 13:30N 30°08' W 093°20'0 0.1
2018-Feb-15 13:00N 30°08' W 093°20'0 0.0
2018-Feb-15 12:30N 30°08' W 093°20'0 0.0
2018-Feb-15 12:00N 30°08' W 093°20'0 0.1
2018-Feb-15 11:30N 30°08' W 093°20'0 0.0
2018-Feb-15 11:00N 30°08' W 093°20'0 0.0
2018-Feb-15 10:31N 30°08' W 093°20'0 0.0
2018-Feb-15 10:00N 30°08' W 093°20'0 0.0
2018-Feb-15 09:30N 30°08' W 093°20'0 0.0
2018-Feb-15 09:00N 30°08' W 093°20'0 0.0
2018-Feb-15 08:30N 30°08' W 093°20'0 0.0
2018-Feb-15 08:00N 30°08' W 093°20'0 0.0
2018-Feb-15 07:30N 30°08' W 093°20'0 0.0
2018-Feb-15 07:00N 30°08' W 093°20'0 0.0
2018-Feb-15 06:30N 30°08' W 093°20'0 0.0
2018-Feb-15 06:00N 30°08' W 093°20'0 0.0
2018-Feb-15 05:31N 30°08' W 093°20'0 0.0
2018-Feb-15 05:00N 30°08' W 093°20'0 0.0
2018-Feb-15 04:31N 30°08' W 093°20'0 0.0
2018-Feb-15 04:00N 30°08' W 093°20'0 0.0
2018-Feb-15 03:30N 30°08' W 093°20'0 0.0
2018-Feb-15 03:01N 30°08' W 093°20'0 0.0
2018-Feb-15 02:22N 30°08' W 093°20'0 0.0
2018-Feb-15 02:00N 30°08' W 093°20'0 0.0
2018-Feb-15 01:31N 30°08' W 093°20'0 0.0
2018-Feb-15 01:00N 30°08' W 093°20'0 0.0
2018-Feb-15 00:30N 30°08' W 093°20'0 0.0
2018-Feb-15 00:01N 30°08' W 093°20'2 3.5
2018-Feb-14 23:30N 30°06' W 093°20'2 4.5
2018-Feb-14 23:00N 30°04' W 093°21'0 0.0
2018-Feb-14 22:30N 30°04' W 093°21'0 0.0
2018-Feb-14 22:01N 30°04' W 093°21'0 0.0
2018-Feb-14 21:30N 30°04' W 093°21'0 0.0
2018-Feb-14 21:01N 30°04' W 093°21'0 0.0
2018-Feb-14 20:30N 30°04' W 093°21'1 2.3
2018-Feb-14 20:01N 30°05' W 093°20'0 0.0
2018-Feb-14 19:31N 30°05' W 093°20'0 0.0
2018-Feb-14 19:00N 30°05' W 093°20'0 0.1
2018-Feb-14 18:30N 30°05' W 093°20'0 0.8
2018-Feb-14 18:00N 30°05' W 093°20'1 1.5
2018-Feb-14 17:30N 30°04' W 093°21'0 0.3
2018-Feb-14 17:00N 30°04' W 093°21'0 0.3
2018-Feb-14 16:29N 30°04' W 093°21'0 0.0
2018-Feb-14 16:00N 30°04' W 093°21'0 0.0
2018-Feb-14 15:30N 30°04' W 093°21'0 0.0
2018-Feb-14 15:01N 30°04' W 093°21'0 0.0
2018-Feb-14 14:31N 30°04' W 093°21'0 0.0
2018-Feb-14 14:01N 30°04' W 093°21'0 0.0
2018-Feb-14 13:30N 30°04' W 093°21'0 0.0
2018-Feb-14 13:00N 30°04' W 093°21'0 0.0
2018-Feb-14 12:30N 30°04' W 093°21'0 0.0
2018-Feb-14 12:00N 30°04' W 093°21'0 0.0
2018-Feb-14 11:29N 30°04' W 093°21'0 0.0
2018-Feb-14 11:00N 30°04' W 093°21'0 0.0
2018-Feb-14 10:31N 30°04' W 093°21'0 0.0
2018-Feb-14 10:01N 30°04' W 093°21'0 0.0
2018-Feb-14 09:30N 30°04' W 093°21'0 0.0
2018-Feb-14 09:00N 30°04' W 093°21'0 0.0
2018-Feb-14 08:26N 30°04' W 093°21'0 0.0
2018-Feb-14 08:00N 30°04' W 093°21'0 0.0
2018-Feb-14 07:30N 30°04' W 093°21'0 0.0
2018-Feb-14 07:00N 30°04' W 093°21'0 0.0
2018-Feb-14 06:30N 30°04' W 093°21'0 0.0
2018-Feb-14 06:00N 30°04' W 093°21'0 0.0
2018-Feb-14 05:31N 30°04' W 093°21'0 0.0
2018-Feb-14 05:00N 30°04' W 093°21'0 0.0
2018-Feb-14 04:29N 30°04' W 093°21'0 0.0
2018-Feb-14 04:00N 30°04' W 093°21'0 0.0
2018-Feb-14 03:30N 30°04' W 093°21'0 0.0
2018-Feb-14 03:00N 30°04' W 093°21'0 0.0
2018-Feb-14 02:30N 30°04' W 093°21'0 0.0
2018-Feb-14 02:00N 30°04' W 093°21'0 0.0
2018-Feb-14 01:30N 30°04' W 093°21'0 0.0
2018-Feb-14 01:00N 30°04' W 093°21'0 0.0
2018-Feb-14 00:30N 30°04' W 093°21'0 0.0
2018-Feb-14 00:01N 30°04' W 093°21'0 0.0
2018-Feb-13 23:30N 30°04' W 093°21'0 0.0
2018-Feb-13 23:00N 30°04' W 093°21'0 0.0
2018-Feb-13 22:30N 30°04' W 093°21'0 0.0
2018-Feb-13 22:00N 30°04' W 093°21'0 0.0
2018-Feb-13 21:31N 30°04' W 093°21'1 2.1
2018-Feb-13 21:00N 30°05' W 093°20'0 0.0
2018-Feb-13 20:31N 30°05' W 093°20'0 0.0
2018-Feb-13 20:00N 30°05' W 093°20'3 6.3
2018-Feb-13 19:30N 30°08' W 093°20'0 0.9
2018-Feb-13 19:00N 30°08' W 093°19'0 0.0
2018-Feb-13 18:31N 30°08' W 093°19'0 0.0
2018-Feb-13 17:58N 30°08' W 093°19'0 0.0
2018-Feb-13 17:30N 30°08' W 093°19'0 0.0
2018-Feb-13 17:00N 30°08' W 093°19'0 0.0
2018-Feb-13 16:27N 30°08' W 093°19'0 0.0
2018-Feb-13 15:59N 30°08' W 093°19'0 0.0
2018-Feb-13 15:30N 30°08' W 093°19'0 0.0
2018-Feb-13 14:58N 30°08' W 093°19'0 0.0
2018-Feb-13 14:30N 30°08' W 093°19'0 0.0
2018-Feb-13 14:00N 30°08' W 093°19'0 0.0
2018-Feb-13 13:30N 30°08' W 093°19'0 0.0
2018-Feb-13 13:00N 30°08' W 093°19'0 0.0
2018-Feb-13 12:30N 30°08' W 093°19'0 0.0
2018-Feb-13 11:56N 30°08' W 093°19'0 0.0
2018-Feb-13 11:26N 30°08' W 093°19'0 0.0
2018-Feb-13 11:01N 30°08' W 093°19'0 0.0
2018-Feb-13 10:31N 30°08' W 093°19'0 0.0
2018-Feb-13 10:00N 30°08' W 093°19'0 0.0
2018-Feb-13 09:30N 30°08' W 093°19'0 0.0
2018-Feb-13 08:58N 30°08' W 093°19'0 0.0
2018-Feb-13 08:30N 30°08' W 093°19'0 0.0
2018-Feb-13 07:59N 30°08' W 093°19'0 0.3
2018-Feb-13 07:28N 30°08' W 093°19'1 1.2
2018-Feb-13 07:00N 30°08' W 093°20'3 5.8
2018-Feb-13 06:30N 30°05' W 093°20'1 1.3
2018-Feb-13 06:00N 30°04' W 093°20'1 2.0
2018-Feb-13 05:29N 30°05' W 093°20'0 0.0
2018-Feb-13 05:00N 30°05' W 093°20'0 0.0
2018-Feb-13 04:30N 30°05' W 093°20'0 0.0
2018-Feb-13 03:48N 30°05' W 093°20'0 0.0
2018-Feb-13 03:31N 30°05' W 093°20'0 0.0
2018-Feb-13 03:00N 30°05' W 093°20'0 0.0
2018-Feb-13 02:30N 30°05' W 093°20'0 0.0
2018-Feb-13 02:00N 30°05' W 093°20'0 0.0
2018-Feb-13 01:30N 30°05' W 093°20'0 0.0
2018-Feb-13 01:01N 30°05' W 093°20'0 0.0
2018-Feb-13 00:30N 30°05' W 093°20'0 0.0
2018-Feb-13 00:00N 30°05' W 093°20'0 0.0
2018-Feb-12 23:30N 30°05' W 093°20'0 0.0
2018-Feb-12 23:00N 30°05' W 093°20'0 0.0
2018-Feb-12 22:30N 30°05' W 093°20'0 0.0
2018-Feb-12 22:00N 30°05' W 093°20'0 0.0
2018-Feb-12 21:29N 30°05' W 093°20'0 0.0
2018-Feb-12 20:55N 30°05' W 093°20'0 0.0
2018-Feb-12 20:27N 30°05' W 093°20'0 0.0
2018-Feb-12 20:00N 30°05' W 093°20'0 0.0
2018-Feb-12 19:25N 30°05' W 093°20'0 0.0
2018-Feb-12 19:00N 30°05' W 093°20'0 0.0
2018-Feb-12 18:30N 30°05' W 093°20'0 0.2
2018-Feb-12 17:57N 30°05' W 093°20'0 0.0
2018-Feb-12 17:29N 30°05' W 093°20'0 0.0
2018-Feb-12 17:00N 30°05' W 093°20'0 0.0
2018-Feb-12 16:29N 30°05' W 093°20'0 0.0
2018-Feb-12 15:57N 30°05' W 093°20'0 0.0
2018-Feb-12 15:30N 30°05' W 093°20'0 0.0
2018-Feb-12 14:59N 30°05' W 093°20'0 0.0
2018-Feb-12 14:29N 30°05' W 093°20'0 0.0
2018-Feb-12 14:01N 30°05' W 093°20'0 0.0
2018-Feb-12 13:30N 30°05' W 093°20'0 0.0
2018-Feb-12 13:01N 30°05' W 093°20'0 0.0
2018-Feb-12 12:30N 30°05' W 093°20'0 0.0
2018-Feb-12 11:59N 30°05' W 093°20'0 0.0
2018-Feb-12 11:27N 30°05' W 093°20'0 0.0
2018-Feb-12 10:59N 30°05' W 093°20'0 0.0
2018-Feb-12 10:30N 30°05' W 093°20'0 0.0
2018-Feb-12 09:55N 30°05' W 093°20'0 0.0
2018-Feb-12 09:25N 30°05' W 093°20'0 0.0
2018-Feb-12 09:00N 30°05' W 093°20'0 0.0
2018-Feb-12 08:28N 30°05' W 093°20'0 0.0
2018-Feb-12 08:00N 30°05' W 093°20'0 0.0
2018-Feb-12 07:30N 30°05' W 093°20'0 0.0
2018-Feb-12 06:59N 30°05' W 093°20'2 3.3
2018-Feb-12 06:30N 30°06' W 093°19'0 0.2
2018-Feb-12 05:55N 30°06' W 093°19'2 6.0
2018-Feb-12 05:30N 30°05' W 093°17'2 4.4
2018-Feb-12 05:00N 30°02' W 093°16'3 4.9
2018-Feb-12 04:27N 30°00' W 093°14'1 2.7
2018-Feb-12 03:56N 29°59' W 093°13'0 1.0
2018-Feb-12 03:29N 29°59' W 093°12'2 4.5
2018-Feb-12 02:58N 29°57' W 093°11'3 5.3
2018-Feb-12 02:27N 29°56' W 093°08'3 6.0
2018-Feb-12 01:57N 29°56' W 093°04'40 6.0
2018-Feb-11 19:15N 29°50' W 092°18'1 6.0
2018-Feb-11 19:00N 29°49' W 092°17'3 5.6
2018-Feb-11 18:30N 29°48' W 092°14'3 5.7
2018-Feb-11 18:00N 29°47' W 092°11'3 5.3
2018-Feb-11 17:30N 29°47' W 092°08'3 6.1
2018-Feb-11 16:59N 29°48' W 092°05'1 1.6
2018-Feb-11 16:29N 29°49' W 092°04'0 0.1
2018-Feb-11 16:01N 29°48' W 092°04'0 0.0
2018-Feb-11 15:30N 29°48' W 092°04'0 0.0
2018-Feb-11 14:59N 29°48' W 092°04'0 0.0
2018-Feb-11 14:30N 29°48' W 092°04'0 0.0
2018-Feb-11 12:01N 29°48' W 092°04'0 0.6
2018-Feb-11 11:59N 29°48' W 092°04'0 0.0
2018-Feb-11 11:30N 29°49' W 092°04'0 0.0
2018-Feb-11 11:00N 29°49' W 092°04'0 0.0
2018-Feb-11 10:30N 29°49' W 092°04'0 0.0
2018-Feb-11 09:58N 29°49' W 092°04'0 0.0
2018-Feb-11 09:30N 29°48' W 092°04'0 0.0
2018-Feb-11 09:00N 29°48' W 092°04'0 0.0
2018-Feb-11 08:30N 29°49' W 092°04'0 0.0
2018-Feb-11 08:00N 29°49' W 092°04'0 0.0
2018-Feb-11 07:28N 29°48' W 092°04'0 0.0
2018-Feb-11 07:00N 29°49' W 092°04'0 0.0
2018-Feb-11 06:30N 29°49' W 092°04'0 0.0
2018-Feb-11 06:00N 29°49' W 092°04'0 0.0
2018-Feb-11 05:29N 29°49' W 092°04'0 0.0
2018-Feb-11 05:00N 29°49' W 092°04'0 0.0
2018-Feb-11 04:30N 29°49' W 092°04'1 1.0
2018-Feb-11 03:58N 29°49' W 092°03'65 5.8
2018-Feb-10 16:43N 29°32' W 090°51'1 6.7
2018-Feb-10 16:30N 29°32' W 090°49'3 6.2
2018-Feb-10 16:01N 29°33' W 090°46'3 5.5
2018-Feb-10 15:29N 29°34' W 090°43'2 5.1
2018-Feb-10 15:01N 29°37' W 090°42'3 5.6
2018-Feb-10 14:30N 29°36' W 090°39'1 1.5
2018-Feb-10 14:00N 29°35' W 090°39'0 0.0
2018-Feb-10 13:30N 29°35' W 090°39'0 0.0
2018-Feb-10 13:00N 29°35' W 090°39'2 4.2
2018-Feb-10 12:30N 29°35' W 090°36'3 5.9
2018-Feb-10 12:00N 29°34' W 090°33'  
Track history (hours):
 
Tides and Currents Weather Stations Pressure Air Temp Water Temp Dewpoint Dewpoint Depression Visibility Wind Speed Wind Dir Waves Ship Positions

Jane Ann Blessey

Owner: BLESSY ENTERPRISES INC, HARAHAN, LA. More information available from US FCC via Universal Licensing System.

Last reported at 2018-Feb-19 08:02 UTC. Time now 2018-Feb-24 09:57 UTC.
Position N 29°34' W 090°33'.

Length 25 m; draft 2.7 m.

MMSI: 366812830.

Date/timePositionNaut miles runAvg speedWind from/ knotsBaromVisibWave heightAir tempDewpointWater temp
2018-Feb-19 08:02N 29°34' W 090°33'0 5.2
2018-Feb-19 08:00N 29°34' W 090°33'3 4.9
2018-Feb-19 07:27N 29°35' W 090°36'2 5.0
2018-Feb-19 07:00N 29°36' W 090°39'2 4.4
2018-Feb-19 06:30N 29°36' W 090°41'1 2.8
2018-Feb-19 06:00N 29°36' W 090°43'2 3.8
2018-Feb-19 05:30N 29°34' W 090°43'2 3.6
2018-Feb-19 05:01N 29°33' W 090°45'1 1.6
2018-Feb-19 04:30N 29°32' W 090°46'0 0.0
2018-Feb-19 04:00N 29°32' W 090°46'0 0.0
2018-Feb-19 03:30N 29°32' W 090°46'0 0.0
2018-Feb-19 03:00N 29°32' W 090°46'0 0.4
2018-Feb-19 02:30N 29°32' W 090°46'2 3.5
2018-Feb-19 01:59N 29°32' W 090°48'70 2.7
2018-Feb-18 00:24N 29°48' W 092°06'2 5.5
2018-Feb-18 00:00N 29°47' W 092°09'2 4.9
2018-Feb-17 23:30N 29°47' W 092°11'3 5.8
2018-Feb-17 23:00N 29°48' W 092°15'3 5.8
2018-Feb-17 22:28N 29°50' W 092°18'41 2.0
2018-Feb-17 01:27N 29°56' W 093°05'3 4.2
2018-Feb-17 00:45N 29°56' W 093°08'2 4.1
2018-Feb-17 00:16N 29°57' W 093°10'1 4.5
2018-Feb-17 00:00N 29°58' W 093°11'3 4.5
2018-Feb-16 23:22N 29°60' W 093°13'1 4.0
2018-Feb-16 23:00N 30°01' W 093°14'2 4.0
2018-Feb-16 22:30N 30°03' W 093°16'2 4.4
2018-Feb-16 22:00N 30°05' W 093°17'2 3.5
2018-Feb-16 21:31N 30°06' W 093°18'1 1.5
2018-Feb-16 21:00N 30°06' W 093°19'0 0.0
2018-Feb-16 20:31N 30°06' W 093°19'0 0.0
2018-Feb-16 20:00N 30°06' W 093°19'0 0.0
2018-Feb-16 19:30N 30°06' W 093°19'0 0.5
2018-Feb-16 19:00N 30°06' W 093°19'0 0.0
2018-Feb-16 18:31N 30°06' W 093°19'2 3.0
2018-Feb-16 18:00N 30°05' W 093°20'0 0.5
2018-Feb-16 17:30N 30°05' W 093°20'0 0.6
2018-Feb-16 17:00N 30°05' W 093°20'0 0.0
2018-Feb-16 16:30N 30°05' W 093°20'0 0.0
2018-Feb-16 16:00N 30°05' W 093°20'0 0.0
2018-Feb-16 15:30N 30°05' W 093°20'0 0.0
2018-Feb-16 15:01N 30°05' W 093°20'0 0.9
2018-Feb-16 14:30N 30°05' W 093°20'0 0.0
2018-Feb-16 13:59N 30°05' W 093°20'0 0.0
2018-Feb-16 13:30N 30°05' W 093°20'0 0.0
2018-Feb-16 12:58N 30°05' W 093°20'0 0.0
2018-Feb-16 12:29N 30°05' W 093°20'0 0.0
2018-Feb-16 12:00N 30°05' W 093°20'0 0.0
2018-Feb-16 11:30N 30°05' W 093°20'0 0.0
2018-Feb-16 10:59N 30°05' W 093°20'0 0.0
2018-Feb-16 10:30N 30°05' W 093°20'0 0.0
2018-Feb-16 10:00N 30°05' W 093°20'0 0.0
2018-Feb-16 09:30N 30°05' W 093°20'0 0.0
2018-Feb-16 08:58N 30°05' W 093°20'0 0.0
2018-Feb-16 08:29N 30°05' W 093°20'0 0.0
2018-Feb-16 08:00N 30°05' W 093°20'0 0.0
2018-Feb-16 07:30N 30°05' W 093°20'0 0.0
2018-Feb-16 07:00N 30°05' W 093°20'0 0.0
2018-Feb-16 06:30N 30°05' W 093°20'0 0.3
2018-Feb-16 06:00N 30°05' W 093°20'2 3.4
2018-Feb-16 05:30N 30°07' W 093°20'1 2.9
2018-Feb-16 05:00N 30°08' W 093°20'0 0.0
2018-Feb-16 04:30N 30°08' W 093°20'0 0.1
2018-Feb-16 04:00N 30°08' W 093°20'0 0.9
2018-Feb-16 03:30N 30°08' W 093°19'0 0.0
2018-Feb-16 03:01N 30°08' W 093°19'0 0.0
2018-Feb-16 02:31N 30°08' W 093°19'0 0.0
2018-Feb-16 02:00N 30°08' W 093°19'0 0.0
2018-Feb-16 01:31N 30°08' W 093°19'0 0.0
2018-Feb-16 01:00N 30°08' W 093°19'0 0.0
2018-Feb-16 00:29N 30°08' W 093°19'0 0.0
2018-Feb-16 00:00N 30°08' W 093°19'0 0.0
2018-Feb-15 23:31N 30°08' W 093°19'0 0.0
2018-Feb-15 22:57N 30°08' W 093°19'0 0.0
2018-Feb-15 22:30N 30°08' W 093°19'0 0.0
2018-Feb-15 22:00N 30°08' W 093°19'0 0.0
2018-Feb-15 21:30N 30°08' W 093°19'0 0.0
2018-Feb-15 21:00N 30°08' W 093°19'0 0.0
2018-Feb-15 20:30N 30°08' W 093°19'0 0.0
2018-Feb-15 20:00N 30°08' W 093°19'0 0.0
2018-Feb-15 19:29N 30°08' W 093°19'0 0.0
2018-Feb-15 19:00N 30°08' W 093°19'0 0.0
2018-Feb-15 18:30N 30°08' W 093°19'0 0.0
2018-Feb-15 18:00N 30°08' W 093°19'0 0.0
2018-Feb-15 17:30N 30°08' W 093°19'0 0.0
2018-Feb-15 17:00N 30°08' W 093°19'0 0.0
2018-Feb-15 16:28N 30°08' W 093°19'0 0.0
2018-Feb-15 15:57N 30°08' W 093°19'0 0.0
2018-Feb-15 15:29N 30°08' W 093°19'0 0.0
2018-Feb-15 15:01N 30°08' W 093°19'0 0.0
2018-Feb-15 14:30N 30°08' W 093°19'0 0.1
2018-Feb-15 13:59N 30°08' W 093°19'0 0.9
2018-Feb-15 13:30N 30°08' W 093°20'0 0.1
2018-Feb-15 13:00N 30°08' W 093°20'0 0.0
2018-Feb-15 12:30N 30°08' W 093°20'0 0.0
2018-Feb-15 12:00N 30°08' W 093°20'0 0.1
2018-Feb-15 11:30N 30°08' W 093°20'0 0.0
2018-Feb-15 11:00N 30°08' W 093°20'0 0.0
2018-Feb-15 10:31N 30°08' W 093°20'0 0.0
2018-Feb-15 10:00N 30°08' W 093°20'0 0.0
2018-Feb-15 09:30N 30°08' W 093°20'0 0.0
2018-Feb-15 09:00N 30°08' W 093°20'0 0.0
2018-Feb-15 08:30N 30°08' W 093°20'0 0.0
2018-Feb-15 08:00N 30°08' W 093°20'0 0.0
2018-Feb-15 07:30N 30°08' W 093°20'0 0.0
2018-Feb-15 07:00N 30°08' W 093°20'0 0.0
2018-Feb-15 06:30N 30°08' W 093°20'0 0.0
2018-Feb-15 06:00N 30°08' W 093°20'0 0.0
2018-Feb-15 05:31N 30°08' W 093°20'0 0.0
2018-Feb-15 05:00N 30°08' W 093°20'0 0.0
2018-Feb-15 04:31N 30°08' W 093°20'0 0.0
2018-Feb-15 04:00N 30°08' W 093°20'0 0.0
2018-Feb-15 03:30N 30°08' W 093°20'0 0.0
2018-Feb-15 03:01N 30°08' W 093°20'0 0.0
2018-Feb-15 02:22N 30°08' W 093°20'0 0.0
2018-Feb-15 02:00N 30°08' W 093°20'0 0.0
2018-Feb-15 01:31N 30°08' W 093°20'0 0.0
2018-Feb-15 01:00N 30°08' W 093°20'0 0.0
2018-Feb-15 00:30N 30°08' W 093°20'0 0.0
2018-Feb-15 00:01N 30°08' W 093°20'2 3.5
2018-Feb-14 23:30N 30°06' W 093°20'2 4.5
2018-Feb-14 23:00N 30°04' W 093°21'0 0.0
2018-Feb-14 22:30N 30°04' W 093°21'0 0.0
2018-Feb-14 22:01N 30°04' W 093°21'0 0.0
2018-Feb-14 21:30N 30°04' W 093°21'0 0.0
2018-Feb-14 21:01N 30°04' W 093°21'0 0.0
2018-Feb-14 20:30N 30°04' W 093°21'1 2.3
2018-Feb-14 20:01N 30°05' W 093°20'0 0.0
2018-Feb-14 19:31N 30°05' W 093°20'0 0.0
2018-Feb-14 19:00N 30°05' W 093°20'0 0.1
2018-Feb-14 18:30N 30°05' W 093°20'0 0.8
2018-Feb-14 18:00N 30°05' W 093°20'1 1.5
2018-Feb-14 17:30N 30°04' W 093°21'0 0.3
2018-Feb-14 17:00N 30°04' W 093°21'0 0.3
2018-Feb-14 16:29N 30°04' W 093°21'0 0.0
2018-Feb-14 16:00N 30°04' W 093°21'0 0.0
2018-Feb-14 15:30N 30°04' W 093°21'0 0.0
2018-Feb-14 15:01N 30°04' W 093°21'0 0.0
2018-Feb-14 14:31N 30°04' W 093°21'0 0.0
2018-Feb-14 14:01N 30°04' W 093°21'0 0.0
2018-Feb-14 13:30N 30°04' W 093°21'0 0.0
2018-Feb-14 13:00N 30°04' W 093°21'0 0.0
2018-Feb-14 12:30N 30°04' W 093°21'0 0.0
2018-Feb-14 12:00N 30°04' W 093°21'0 0.0
2018-Feb-14 11:29N 30°04' W 093°21'0 0.0
2018-Feb-14 11:00N 30°04' W 093°21'0 0.0
2018-Feb-14 10:31N 30°04' W 093°21'0 0.0
2018-Feb-14 10:01N 30°04' W 093°21'0 0.0
2018-Feb-14 09:30N 30°04' W 093°21'0 0.0
2018-Feb-14 09:00N 30°04' W 093°21'0 0.0
2018-Feb-14 08:26N 30°04' W 093°21'0 0.0
2018-Feb-14 08:00N 30°04' W 093°21'0 0.0
2018-Feb-14 07:30N 30°04' W 093°21'0 0.0
2018-Feb-14 07:00N 30°04' W 093°21'0 0.0
2018-Feb-14 06:30N 30°04' W 093°21'0 0.0
2018-Feb-14 06:00N 30°04' W 093°21'0 0.0
2018-Feb-14 05:31N 30°04' W 093°21'0 0.0
2018-Feb-14 05:00N 30°04' W 093°21'0 0.0
2018-Feb-14 04:29N 30°04' W 093°21'0 0.0
2018-Feb-14 04:00N 30°04' W 093°21'0 0.0
2018-Feb-14 03:30N 30°04' W 093°21'0 0.0
2018-Feb-14 03:00N 30°04' W 093°21'0 0.0
2018-Feb-14 02:30N 30°04' W 093°21'0 0.0
2018-Feb-14 02:00N 30°04' W 093°21'0 0.0
2018-Feb-14 01:30N 30°04' W 093°21'0 0.0
2018-Feb-14 01:00N 30°04' W 093°21'0 0.0
2018-Feb-14 00:30N 30°04' W 093°21'0 0.0
2018-Feb-14 00:01N 30°04' W 093°21'0 0.0
2018-Feb-13 23:30N 30°04' W 093°21'0 0.0
2018-Feb-13 23:00N 30°04' W 093°21'0 0.0
2018-Feb-13 22:30N 30°04' W 093°21'0 0.0
2018-Feb-13 22:00N 30°04' W 093°21'0 0.0
2018-Feb-13 21:31N 30°04' W 093°21'1 2.1
2018-Feb-13 21:00N 30°05' W 093°20'0 0.0
2018-Feb-13 20:31N 30°05' W 093°20'0 0.0
2018-Feb-13 20:00N 30°05' W 093°20'3 6.3
2018-Feb-13 19:30N 30°08' W 093°20'0 0.9
2018-Feb-13 19:00N 30°08' W 093°19'0 0.0
2018-Feb-13 18:31N 30°08' W 093°19'0 0.0
2018-Feb-13 17:58N 30°08' W 093°19'0 0.0
2018-Feb-13 17:30N 30°08' W 093°19'0 0.0
2018-Feb-13 17:00N 30°08' W 093°19'0 0.0
2018-Feb-13 16:27N 30°08' W 093°19'0 0.0
2018-Feb-13 15:59N 30°08' W 093°19'0 0.0
2018-Feb-13 15:30N 30°08' W 093°19'0 0.0
2018-Feb-13 14:58N 30°08' W 093°19'0 0.0
2018-Feb-13 14:30N 30°08' W 093°19'0 0.0
2018-Feb-13 14:00N 30°08' W 093°19'0 0.0
2018-Feb-13 13:30N 30°08' W 093°19'0 0.0
2018-Feb-13 13:00N 30°08' W 093°19'0 0.0
2018-Feb-13 12:30N 30°08' W 093°19'0 0.0
2018-Feb-13 11:56N 30°08' W 093°19'0 0.0
2018-Feb-13 11:26N 30°08' W 093°19'0 0.0
2018-Feb-13 11:01N 30°08' W 093°19'0 0.0
2018-Feb-13 10:31N 30°08' W 093°19'0 0.0
2018-Feb-13 10:00N 30°08' W 093°19'0 0.0
2018-Feb-13 09:30N 30°08' W 093°19'0 0.0
2018-Feb-13 08:58N 30°08' W 093°19'0 0.0
2018-Feb-13 08:30N 30°08' W 093°19'0 0.0
2018-Feb-13 07:59N 30°08' W 093°19'0 0.3
2018-Feb-13 07:28N 30°08' W 093°19'1 1.2
2018-Feb-13 07:00N 30°08' W 093°20'3 5.8
2018-Feb-13 06:30N 30°05' W 093°20'1 1.3
2018-Feb-13 06:00N 30°04' W 093°20'1 2.0
2018-Feb-13 05:29N 30°05' W 093°20'0 0.0
2018-Feb-13 05:00N 30°05' W 093°20'0 0.0
2018-Feb-13 04:30N 30°05' W 093°20'0 0.0
2018-Feb-13 03:48N 30°05' W 093°20'0 0.0
2018-Feb-13 03:31N 30°05' W 093°20'0 0.0
2018-Feb-13 03:00N 30°05' W 093°20'0 0.0
2018-Feb-13 02:30N 30°05' W 093°20'0 0.0
2018-Feb-13 02:00N 30°05' W 093°20'0 0.0
2018-Feb-13 01:30N 30°05' W 093°20'0 0.0
2018-Feb-13 01:01N 30°05' W 093°20'0 0.0
2018-Feb-13 00:30N 30°05' W 093°20'0 0.0
2018-Feb-13 00:00N 30°05' W 093°20'0 0.0
2018-Feb-12 23:30N 30°05' W 093°20'0 0.0
2018-Feb-12 23:00N 30°05' W 093°20'0 0.0
2018-Feb-12 22:30N 30°05' W 093°20'0 0.0
2018-Feb-12 22:00N 30°05' W 093°20'0 0.0
2018-Feb-12 21:29N 30°05' W 093°20'0 0.0
2018-Feb-12 20:55N 30°05' W 093°20'0 0.0
2018-Feb-12 20:27N 30°05' W 093°20'0 0.0
2018-Feb-12 20:00N 30°05' W 093°20'0 0.0
2018-Feb-12 19:25N 30°05' W 093°20'0 0.0
2018-Feb-12 19:00N 30°05' W 093°20'0 0.0
2018-Feb-12 18:30N 30°05' W 093°20'0 0.2
2018-Feb-12 17:57N 30°05' W 093°20'0 0.0
2018-Feb-12 17:29N 30°05' W 093°20'0 0.0
2018-Feb-12 17:00N 30°05' W 093°20'0 0.0
2018-Feb-12 16:29N 30°05' W 093°20'0 0.0
2018-Feb-12 15:57N 30°05' W 093°20'0 0.0
2018-Feb-12 15:30N 30°05' W 093°20'0 0.0
2018-Feb-12 14:59N 30°05' W 093°20'0 0.0
2018-Feb-12 14:29N 30°05' W 093°20'0 0.0
2018-Feb-12 14:01N 30°05' W 093°20'0 0.0
2018-Feb-12 13:30N 30°05' W 093°20'0 0.0
2018-Feb-12 13:01N 30°05' W 093°20'0 0.0
2018-Feb-12 12:30N 30°05' W 093°20'0 0.0
2018-Feb-12 11:59N 30°05' W 093°20'0 0.0
2018-Feb-12 11:27N 30°05' W 093°20'0 0.0
2018-Feb-12 10:59N 30°05' W 093°20'0 0.0
2018-Feb-12 10:30N 30°05' W 093°20'0 0.0
2018-Feb-12 09:55N 30°05' W 093°20'0 0.0
2018-Feb-12 09:25N 30°05' W 093°20'0 0.0
2018-Feb-12 09:00N 30°05' W 093°20'0 0.0
2018-Feb-12 08:28N 30°05' W 093°20'0 0.0
2018-Feb-12 08:00N 30°05' W 093°20'0 0.0
2018-Feb-12 07:30N 30°05' W 093°20'0 0.0
2018-Feb-12 06:59N 30°05' W 093°20'2 3.3
2018-Feb-12 06:30N 30°06' W 093°19'0 0.2
2018-Feb-12 05:55N 30°06' W 093°19'2 6.0
2018-Feb-12 05:30N 30°05' W 093°17'2 4.4
2018-Feb-12 05:00N 30°02' W 093°16'3 4.9
2018-Feb-12 04:27N 30°00' W 093°14'1 2.7
2018-Feb-12 03:56N 29°59' W 093°13'0 1.0
2018-Feb-12 03:29N 29°59' W 093°12'2 4.5
2018-Feb-12 02:58N 29°57' W 093°11'3 5.3
2018-Feb-12 02:27N 29°56' W 093°08'3 6.0
2018-Feb-12 01:57N 29°56' W 093°04'40 6.0
2018-Feb-11 19:15N 29°50' W 092°18'1 6.0
2018-Feb-11 19:00N 29°49' W 092°17'3 5.6
2018-Feb-11 18:30N 29°48' W 092°14'3 5.7
2018-Feb-11 18:00N 29°47' W 092°11'3 5.3
2018-Feb-11 17:30N 29°47' W 092°08'3 6.1
2018-Feb-11 16:59N 29°48' W 092°05'1 1.6
2018-Feb-11 16:29N 29°49' W 092°04'0 0.1
2018-Feb-11 16:01N 29°48' W 092°04'0 0.0
2018-Feb-11 15:30N 29°48' W 092°04'0 0.0
2018-Feb-11 14:59N 29°48' W 092°04'0 0.0
2018-Feb-11 14:30N 29°48' W 092°04'0 0.0
2018-Feb-11 12:01N 29°48' W 092°04'0 0.6
2018-Feb-11 11:59N 29°48' W 092°04'0 0.0
2018-Feb-11 11:30N 29°49' W 092°04'0 0.0
2018-Feb-11 11:00N 29°49' W 092°04'0 0.0
2018-Feb-11 10:30N 29°49' W 092°04'0 0.0
2018-Feb-11 09:58N 29°49' W 092°04'0 0.0
2018-Feb-11 09:30N 29°48' W 092°04'0 0.0
2018-Feb-11 09:00N 29°48' W 092°04'0 0.0
2018-Feb-11 08:30N 29°49' W 092°04'0 0.0
2018-Feb-11 08:00N 29°49' W 092°04'0 0.0
2018-Feb-11 07:28N 29°48' W 092°04'0 0.0
2018-Feb-11 07:00N 29°49' W 092°04'0 0.0
2018-Feb-11 06:30N 29°49' W 092°04'0 0.0
2018-Feb-11 06:00N 29°49' W 092°04'0 0.0
2018-Feb-11 05:29N 29°49' W 092°04'0 0.0
2018-Feb-11 05:00N 29°49' W 092°04'0 0.0
2018-Feb-11 04:30N 29°49' W 092°04'1 1.0
2018-Feb-11 03:58N 29°49' W 092°03'65 5.8
2018-Feb-10 16:43N 29°32' W 090°51'1 6.7
2018-Feb-10 16:30N 29°32' W 090°49'3 6.2
2018-Feb-10 16:01N 29°33' W 090°46'3 5.5
2018-Feb-10 15:29N 29°34' W 090°43'2 5.1
2018-Feb-10 15:01N 29°37' W 090°42'3 5.6
2018-Feb-10 14:30N 29°36' W 090°39'1 1.5
2018-Feb-10 14:00N 29°35' W 090°39'0 0.0
2018-Feb-10 13:30N 29°35' W 090°39'0 0.0
2018-Feb-10 13:00N 29°35' W 090°39'2 4.2
2018-Feb-10 12:30N 29°35' W 090°36'3 5.9
2018-Feb-10 12:00N 29°34' W 090°33'  

Dump ship's entire track history